Time;durP1;ratioP1;P1;durP2;ratioP2;P2;SDS_P1;SDS_P2;PMS_P1;PMS_P2;Temp;Humidity;BMP_temperature;BMP_pressure;BME280_temperature;BME280_humidity;BME280_pressure;Samples;Min_cycle;Max_cycle;Signal;HPM_P1;HPM_P2
2023/10/17 00:03:19;;;;;;;5.70;3.30;;;13.70;92.10;;;;;;10541099;28;20406;-68
2023/10/17 00:08:20;;;;;;;4.50;2.90;;;13.60;92.00;;;;;;10540529;28;20466;-68
2023/10/17 00:18:31;;;;;;;6.07;3.20;;;13.60;92.00;;;;;;10534407;28;20406;-68
2023/10/17 00:23:32;;;;;;;4.78;3.10;;;13.60;92.00;;;;;;10534768;28;20402;-68
2023/10/17 00:28:33;;;;;;;4.10;3.20;;;13.60;92.00;;;;;;10543486;28;20404;-68
2023/10/17 00:33:37;;;;;;;5.68;2.70;;;13.60;92.00;;;;;;10528179;28;20394;-68
2023/10/17 00:38:43;;;;;;;4.68;2.85;;;13.50;91.90;;;;;;10515930;28;21002;-67
2023/10/17 00:43:43;;;;;;;4.88;3.00;;;13.80;91.90;;;;;;10520050;28;20402;-67
2023/10/17 00:48:47;;;;;;;5.27;3.00;;;13.50;91.90;;;;;;10520330;28;20965;-68
2023/10/17 00:53:48;;;;;;;3.58;2.60;;;13.50;91.80;;;;;;10529941;28;20402;-68
2023/10/17 00:58:51;;;;;;;4.50;2.90;;;13.50;91.80;;;;;;10531480;28;20405;-67
2023/10/17 01:03:52;;;;;;;3.25;2.75;;;13.40;91.80;;;;;;10513997;28;20414;-67
2023/10/17 01:08:53;;;;;;;3.77;2.63;;;13.70;91.90;;;;;;10514375;28;20416;-68
2023/10/17 01:13:54;;;;;;;4.57;2.47;;;13.40;91.80;;;;;;10524948;28;20407;-67
2023/10/17 01:18:55;;;;;;;3.73;2.40;;;13.40;91.80;;;;;;10524991;28;20400;-68
2023/10/17 01:23:57;;;;;;;3.87;2.50;;;13.40;91.80;;;;;;10527192;28;20437;-68
2023/10/17 01:28:59;;;;;;;3.17;2.30;;;13.40;91.80;;;;;;10536035;28;20470;-68
2023/10/17 01:34:00;;;;;;;4.13;2.40;;;13.40;91.80;;;;;;10509659;28;20524;-67
2023/10/17 01:39:06;;;;;;;4.40;2.40;;;13.30;91.70;;;;;;10529892;28;20429;-67
2023/10/17 01:44:09;;;;;;;3.60;2.33;;;13.40;91.70;;;;;;10532261;28;20399;-67
2023/10/17 01:49:10;;;;;;;3.83;2.20;;;13.30;91.70;;;;;;10530344;28;20711;-68
2023/10/17 01:54:15;;;;;;;3.63;2.07;;;13.30;91.60;;;;;;10527519;28;20848;-67
2023/10/17 01:59:49;;;;;;;2.80;1.98;;;13.30;91.60;;;;;;10529237;28;20430;-67
2023/10/17 02:04:47;;;;;;;3.08;2.15;;;13.30;91.90;;;;;;10526485;28;21388;-66
2023/10/17 02:09:48;;;;;;;2.80;1.90;;;13.20;91.60;;;;;;10530350;28;20476;-68
2023/10/17 02:14:49;;;;;;;2.95;1.95;;;13.20;91.50;;;;;;10522001;28;20421;-68
2023/10/17 02:19:52;;;;;;;2.60;2.00;;;13.20;91.50;;;;;;10514380;28;20405;-67
2023/10/17 02:24:56;;;;;;;2.85;1.80;;;13.40;91.60;;;;;;10536259;28;20567;-68
2023/10/17 02:29:58;;;;;;;2.67;1.90;;;13.20;91.50;;;;;;10532409;28;20411;-68
2023/10/17 02:35:01;;;;;;;3.75;2.00;;;13.20;91.50;;;;;;10537629;28;20405;-67
2023/10/17 02:40:19;;;;;;;2.53;1.87;;;13.20;91.50;;;;;;10532985;28;20853;-67
2023/10/17 02:45:26;;;;;;;3.78;2.15;;;13.20;91.40;;;;;;10507087;28;20406;-68
2023/10/17 02:50:42;;;;;;;2.88;2.00;;;13.20;91.50;;;;;;10518695;28;20794;-68
2023/10/17 02:55:43;;;;;;;2.90;1.70;;;13.10;91.40;;;;;;10526506;28;20400;-67
2023/10/17 03:00:47;;;;;;;3.70;2.00;;;13.10;91.40;;;;;;10516853;28;20399;-67
2023/10/17 03:05:50;;;;;;;2.58;1.50;;;13.10;91.40;;;;;;10530335;28;20483;-68
2023/10/17 03:10:56;;;;;;;2.97;1.80;;;13.10;91.40;;;;;;10522894;28;20887;-67
2023/10/17 03:16:00;;;;;;;2.33;1.75;;;13.00;91.30;;;;;;10538960;28;20411;-68
2023/10/17 03:21:01;;;;;;;3.28;2.10;;;13.00;91.30;;;;;;10529581;28;20390;-68
2023/10/17 03:26:01;;;;;;;2.40;1.80;;;13.00;91.30;;;;;;10523868;28;20405;-67
2023/10/17 03:31:10;;;;;;;2.28;1.70;;;13.00;91.30;;;;;;10534182;28;20393;-68
2023/10/17 03:36:40;;;;;;;2.42;1.70;;;13.10;91.30;;;;;;10510492;28;20915;-68
2023/10/17 03:41:31;;;;;;;2.40;1.80;;;13.00;91.20;;;;;;10533072;28;20502;-67
2023/10/17 03:46:35;;;;;;;2.85;1.85;;;13.00;91.20;;;;;;10529881;28;20493;-68
2023/10/17 03:51:39;;;;;;;3.33;1.90;;;12.80;91.20;;;;;;10527074;28;20426;-66
2023/10/17 03:56:46;;;;;;;2.77;1.80;;;12.90;91.20;;;;;;10530704;28;20914;-67
2023/10/17 04:01:49;;;;;;;2.70;1.75;;;12.90;91.20;;;;;;10529028;28;20403;-68
2023/10/17 04:06:51;;;;;;;3.05;1.90;;;12.90;91.20;;;;;;10522708;28;20722;-68
2023/10/17 04:11:56;;;;;;;3.80;1.85;;;12.90;91.20;;;;;;10532118;28;20481;-66
2023/10/17 04:16:57;;;;;;;2.63;1.80;;;12.90;91.20;;;;;;10515466;28;20408;-67
2023/10/17 04:32:14;;;;;;;2.33;1.70;;;12.80;91.00;;;;;;10514671;28;20394;-67
2023/10/17 04:37:31;;;;;;;3.17;1.80;;;12.80;91.00;;;;;;10531879;28;20416;-68
2023/10/17 04:47:38;;;;;;;2.70;1.80;;;12.80;90.90;;;;;;10536822;28;20412;-66
2023/10/17 04:52:44;;;;;;;2.47;1.55;;;12.80;91.00;;;;;;10534345;28;20396;-67
2023/10/17 05:08:32;;;;;;;2.90;1.50;;;12.70;90.80;;;;;;10531951;28;20424;-67
2023/10/17 06:17:54;;;;;;;2.08;1.55;;;12.50;90.60;;;;;;10515329;28;20402;-67
2023/10/17 06:28:34;;;;;;;2.63;1.80;;;12.40;90.50;;;;;;10365447;28;20455;-70
2023/10/17 06:33:35;;;;;;;2.83;1.37;;;12.50;90.50;;;;;;10498106;28;20492;-67
2023/10/17 06:38:46;;;;;;;2.50;1.48;;;12.50;90.50;;;;;;10506018;28;20641;-68
2023/10/17 06:43:47;;;;;;;1.98;1.40;;;12.40;90.50;;;;;;10516661;28;20882;-68
2023/10/17 06:48:54;;;;;;;2.17;1.40;;;12.40;90.50;;;;;;10480704;28;20437;-68
2023/10/17 06:53:57;;;;;;;3.23;1.70;;;12.40;90.50;;;;;;10502844;28;20410;-66
2023/10/17 06:59:04;;;;;;;2.15;1.45;;;12.40;90.50;;;;;;10519068;28;20393;-69
2023/10/17 07:04:11;;;;;;;4.32;1.65;;;12.40;90.60;;;;;;10525134;28;20420;-67
2023/10/17 07:09:18;;;;;;;3.15;1.55;;;12.40;90.60;;;;;;10513144;28;20413;-67
2023/10/17 07:14:25;;;;;;;2.95;1.42;;;12.40;90.60;;;;;;10500179;28;20414;-68
2023/10/17 07:24:34;;;;;;;2.67;1.45;;;12.40;90.70;;;;;;10507716;28;20417;-67
2023/10/17 07:29:36;;;;;;;2.20;1.50;;;12.50;90.70;;;;;;10524163;28;20423;-66
2023/10/17 07:34:37;;;;;;;3.20;1.58;;;12.40;90.70;;;;;;10522321;28;20581;-68
2023/10/17 07:39:37;;;;;;;2.47;1.50;;;12.50;90.80;;;;;;10529743;28;20411;-68
2023/10/17 07:44:41;;;;;;;4.30;2.13;;;12.40;90.80;;;;;;10537037;28;20412;-68
2023/10/17 07:49:41;;;;;;;3.30;2.00;;;12.40;91.10;;;;;;10542112;28;20427;-67
2023/10/17 07:54:46;;;;;;;2.65;1.73;;;12.50;91.20;;;;;;10515002;28;20401;-68
2023/10/17 07:59:51;;;;;;;3.70;1.70;;;12.50;91.30;;;;;;10536997;28;20485;-67
2023/10/17 08:04:53;;;;;;;2.80;1.80;;;12.50;91.30;;;;;;10521007;28;20492;-68
2023/10/17 08:09:56;;;;;;;2.35;1.50;;;12.60;91.40;;;;;;10516764;28;20461;-66
2023/10/17 08:14:58;;;;;;;3.30;1.90;;;11.30;91.10;;;;;;10520730;28;20850;-67
2023/10/17 08:20:09;;;;;;;2.72;1.67;;;12.70;91.50;;;;;;10528041;28;20411;-67
2023/10/17 08:25:14;;;;;;;2.30;1.80;;;12.80;91.50;;;;;;10541503;28;20396;-67
2023/10/17 08:30:16;;;;;;;2.60;1.70;;;12.90;91.50;;;;;;10534900;28;20551;-66
2023/10/17 08:35:20;;;;;;;2.55;1.50;;;13.00;91.50;;;;;;10531391;28;20474;-67
2023/10/17 08:40:32;;;;;;;2.63;1.50;;;13.10;91.40;;;;;;10529805;28;20917;-68
2023/10/17 08:45:38;;;;;;;2.65;1.50;;;13.20;91.40;;;;;;10514061;28;20772;-67
2023/10/17 08:50:43;;;;;;;2.13;1.30;;;13.20;91.40;;;;;;10533396;28;20451;-66
2023/10/17 08:55:43;;;;;;;2.17;1.27;;;13.30;91.40;;;;;;10522581;28;20419;-67
2023/10/17 09:11:30;;;;;;;2.28;1.48;;;13.50;91.40;;;;;;10491600;28;20419;-67
2023/10/17 09:16:34;;;;;;;3.10;1.20;;;13.60;91.20;;;;;;10525385;28;20419;-67
2023/10/17 09:21:35;;;;;;;2.08;1.30;;;13.60;91.30;;;;;;10535849;28;20469;-67
2023/10/17 09:26:43;;;;;;;2.92;1.50;;;13.70;91.10;;;;;;10530643;28;20459;-67
2023/10/17 09:31:44;;;;;;;2.60;1.10;;;13.70;91.00;;;;;;10532259;28;20908;-67
2023/10/17 09:36:46;;;;;;;2.47;1.20;;;13.80;91.00;;;;;;10523703;28;20523;-67
2023/10/17 09:42:07;;;;;;;1.90;1.00;;;13.80;91.00;;;;;;10524992;28;20411;-67
2023/10/17 09:47:29;;;;;;;1.63;1.03;;;13.80;90.90;;;;;;10529991;28;20407;-67
2023/10/17 09:52:54;;;;;;;2.28;1.10;;;13.80;91.00;;;;;;10516110;28;20408;-66
2023/10/17 09:58:02;;;;;;;1.95;1.00;;;13.90;91.00;;;;;;10516685;28;20764;-66
2023/10/17 10:03:05;;;;;;;1.63;1.05;;;13.90;91.40;;;;;;10524006;28;20846;-66
2023/10/17 10:08:32;;;;;;;3.20;0.90;;;13.90;91.20;;;;;;10525953;28;20431;-67
2023/10/17 10:14:11;;;;;;;1.95;1.00;;;13.90;91.20;;;;;;10523503;28;20799;-67
2023/10/17 10:19:14;;;;;;;2.15;0.90;;;14.00;91.10;;;;;;10529786;28;20920;-67
2023/10/17 10:24:18;;;;;;;1.75;0.90;;;14.30;91.20;;;;;;10509821;28;21089;-67
2023/10/17 10:29:23;;;;;;;2.00;0.90;;;14.30;91.10;;;;;;10521253;28;20413;-67
2023/10/17 10:34:23;;;;;;;1.83;0.90;;;14.00;91.00;;;;;;10512597;28;20417;-67
2023/10/17 10:39:24;;;;;;;1.92;0.90;;;14.20;91.10;;;;;;10523219;28;20768;-67
2023/10/17 10:44:28;;;;;;;2.00;0.80;;;14.10;91.00;;;;;;10497097;28;20503;-67
2023/10/17 10:49:30;;;;;;;2.17;0.90;;;14.10;91.10;;;;;;10519773;28;20774;-67
2023/10/17 10:54:54;;;;;;;1.88;0.80;;;14.00;91.20;;;;;;10518308;28;20673;-67
2023/10/17 10:59:55;;;;;;;1.60;0.75;;;14.10;91.30;;;;;;10519819;28;20407;-66
2023/10/17 11:04:56;;;;;;;1.50;0.80;;;14.20;91.40;;;;;;10523815;28;20418;-65
2023/10/17 11:10:10;;;;;;;2.00;0.90;;;14.20;91.30;;;;;;10517534;28;20420;-65
2023/10/17 11:15:16;;;;;;;2.03;0.70;;;14.20;91.10;;;;;;10518919;28;20405;-67
2023/10/17 11:20:19;;;;;;;2.92;0.88;;;14.10;91.10;;;;;;10520907;28;20963;-67
2023/10/17 11:25:27;;;;;;;2.95;0.80;;;14.20;91.20;;;;;;10520932;28;20403;-67
2023/10/17 11:31:12;;;;;;;1.30;0.77;;;14.20;91.30;;;;;;10523969;28;20397;-67
2023/10/17 11:35:58;;;;;;;1.55;0.70;;;14.70;91.40;;;;;;10530415;28;20412;-67
2023/10/17 11:41:03;;;;;;;1.67;0.70;;;14.20;91.40;;;;;;10532605;28;20461;-67
2023/10/17 11:46:12;;;;;;;1.63;0.87;;;14.20;91.30;;;;;;10531537;28;20610;-66
2023/10/17 11:51:17;;;;;;;1.57;0.87;;;14.30;91.20;;;;;;10530641;28;20408;-67
2023/10/17 11:56:20;;;;;;;1.40;0.80;;;14.20;91.20;;;;;;10518096;28;20403;-66
2023/10/17 12:01:21;;;;;;;1.30;0.93;;;14.20;91.40;;;;;;10534373;28;20409;-66
2023/10/17 12:06:26;;;;;;;1.30;0.80;;;14.30;91.30;;;;;;10536630;28;20407;-67
2023/10/17 12:11:26;;;;;;;1.57;0.70;;;14.30;91.40;;;;;;10527272;28;20514;-67
2023/10/17 12:16:28;;;;;;;1.02;0.90;;;14.30;91.30;;;;;;10528881;28;20400;-69
2023/10/17 12:21:28;;;;;;;1.48;0.80;;;14.30;91.20;;;;;;10543305;28;20408;-67
2023/10/17 12:26:29;;;;;;;1.47;0.80;;;14.30;91.30;;;;;;10527357;28;20419;-67
2023/10/17 12:31:30;;;;;;;3.05;0.98;;;14.40;91.00;;;;;;10524736;28;20487;-67
2023/10/17 12:36:30;;;;;;;3.92;0.90;;;14.40;91.00;;;;;;10532135;28;20429;-67
2023/10/17 12:41:31;;;;;;;1.17;0.80;;;14.40;91.30;;;;;;10526082;28;20465;-67
2023/10/17 12:46:32;;;;;;;1.70;0.80;;;14.50;91.00;;;;;;10525345;28;20416;-66
2023/10/17 12:51:33;;;;;;;1.30;0.80;;;14.50;91.10;;;;;;10502427;28;20443;-66
2023/10/17 12:56:37;;;;;;;1.60;0.93;;;14.50;91.10;;;;;;10525343;28;20462;-67
2023/10/17 13:01:39;;;;;;;2.13;0.90;;;14.40;91.10;;;;;;10536684;28;20413;-67
2023/10/17 13:06:41;;;;;;;1.30;0.77;;;14.90;91.60;;;;;;10527121;28;20463;-67
2023/10/17 13:11:42;;;;;;;1.50;0.90;;;14.50;91.40;;;;;;10520592;28;20434;-66
2023/10/17 13:16:42;;;;;;;2.17;1.10;;;14.40;91.40;;;;;;10530127;28;20932;-65
2023/10/17 13:21:46;;;;;;;2.30;1.00;;;14.50;91.50;;;;;;10527757;28;20789;-66
2023/10/17 13:26:47;;;;;;;1.70;0.90;;;14.60;91.50;;;;;;10520505;28;20411;-65
2023/10/17 13:31:48;;;;;;;2.40;1.10;;;14.60;91.60;;;;;;10525059;28;20988;-66
2023/10/17 13:36:48;;;;;;;1.50;1.00;;;14.60;91.70;;;;;;10537386;28;20427;-66
2023/10/17 13:41:53;;;;;;;1.80;1.02;;;14.60;91.40;;;;;;10516506;28;20845;-65
2023/10/17 13:46:53;;;;;;;1.50;1.00;;;14.60;91.40;;;;;;10505421;28;20546;-66
2023/10/17 13:51:54;;;;;;;1.43;1.00;;;14.70;91.30;;;;;;10530720;28;20401;-65
2023/10/17 13:56:55;;;;;;;1.30;0.97;;;14.70;91.30;;;;;;10526796;28;20405;-65
2023/10/17 14:01:55;;;;;;;2.10;1.00;;;14.80;91.40;;;;;;10522857;28;20923;-65
2023/10/17 14:06:56;;;;;;;2.07;1.00;;;14.80;91.40;;;;;;10522047;28;20410;-65
2023/10/17 14:11:58;;;;;;;2.00;1.30;;;14.90;91.50;;;;;;10519847;28;20859;-65
2023/10/17 14:17:01;;;;;;;1.30;1.00;;;15.00;91.40;;;;;;10522577;28;20778;-66
2023/10/17 14:27:12;;;;;;;1.85;1.05;;;15.30;90.80;;;;;;10513361;28;20474;-66
2023/10/17 14:32:20;;;;;;;1.95;1.10;;;15.20;90.70;;;;;;10505295;28;20840;-66
2023/10/17 14:37:22;;;;;;;1.30;0.90;;;15.30;90.20;;;;;;10520323;28;20422;-66
2023/10/17 14:42:22;;;;;;;4.83;1.37;;;15.40;90.20;;;;;;10527240;28;20560;-66
2023/10/17 14:47:24;;;;;;;3.75;1.30;;;15.30;85.70;;;;;;10515692;28;20637;-67
2023/10/17 14:52:24;;;;;;;4.60;1.30;;;15.20;86.10;;;;;;10519892;28;20415;-66
2023/10/17 14:57:26;;;;;;;5.50;1.20;;;15.30;86.50;;;;;;10499664;28;20398;-66
2023/10/17 15:02:26;;;;;;;3.42;1.08;;;15.40;86.50;;;;;;10519234;28;20412;-66
2023/10/17 15:07:27;;;;;;;4.20;1.23;;;16.00;87.40;;;;;;10530740;28;20408;-66
2023/10/17 15:12:28;;;;;;;4.70;1.45;;;15.50;87.10;;;;;;10527779;28;20408;-67
2023/10/17 15:17:31;;;;;;;3.07;1.30;;;15.40;87.20;;;;;;10513745;28;20405;-68
2023/10/17 15:22:32;;;;;;;2.78;1.20;;;15.40;87.80;;;;;;10534261;28;20454;-68
2023/10/17 15:27:34;;;;;;;1.95;0.98;;;15.30;88.60;;;;;;10518059;28;20747;-68
2023/10/17 15:32:36;;;;;;;2.58;1.10;;;15.30;88.60;;;;;;10508291;28;20410;-68
2023/10/17 15:37:38;;;;;;;4.40;1.20;;;15.20;88.50;;;;;;10517462;28;20985;-66
2023/10/17 15:42:38;;;;;;;3.13;1.23;;;15.10;88.60;;;;;;10519308;28;20502;-66
2023/10/17 15:47:39;;;;;;;3.15;1.40;;;15.30;89.40;;;;;;10530504;28;20740;-66
2023/10/17 15:52:41;;;;;;;3.10;1.00;;;15.40;89.60;;;;;;10515892;28;20465;-66
2023/10/17 15:57:43;;;;;;;3.60;1.10;;;15.10;89.70;;;;;;10508799;28;20804;-66
2023/10/17 16:02:46;;;;;;;2.20;1.00;;;15.20;89.70;;;;;;10509801;28;20419;-70
2023/10/17 16:07:47;;;;;;;3.87;1.30;;;15.50;89.50;;;;;;10534738;28;20503;-67
2023/10/17 16:12:48;;;;;;;2.65;1.20;;;14.90;87.20;;;;;;10513566;28;20421;-66
2023/10/17 16:17:48;;;;;;;3.63;1.10;;;14.80;87.60;;;;;;10529022;28;20789;-66
2023/10/17 16:22:49;;;;;;;4.27;1.27;;;14.90;87.70;;;;;;10522119;28;20485;-66
2023/10/17 16:27:50;;;;;;;6.97;1.30;;;14.90;87.70;;;;;;10521708;28;20414;-66
2023/10/17 16:32:51;;;;;;;3.17;1.10;;;14.80;88.00;;;;;;10539423;28;20400;-65
2023/10/17 16:37:52;;;;;;;2.58;1.20;;;14.80;87.70;;;;;;10525061;28;20915;-66
2023/10/17 16:42:55;;;;;;;3.75;1.50;;;14.80;88.10;;;;;;10524770;28;20405;-66
2023/10/17 16:47:56;;;;;;;3.53;1.30;;;14.80;88.30;;;;;;10533661;28;20417;-65
2023/10/17 16:52:57;;;;;;;2.10;1.20;;;14.80;88.40;;;;;;10522502;28;20489;-66
2023/10/17 16:57:58;;;;;;;2.05;1.02;;;14.80;88.50;;;;;;10522299;28;20412;-66
2023/10/17 17:02:58;;;;;;;2.47;1.33;;;14.80;88.50;;;;;;10525148;28;20411;-66
2023/10/17 17:07:59;;;;;;;3.13;1.30;;;14.70;88.50;;;;;;10524640;28;20396;-65
2023/10/17 17:13:01;;;;;;;3.93;1.20;;;15.00;88.40;;;;;;10526900;28;21034;-66
2023/10/17 17:18:02;;;;;;;3.30;1.20;;;14.70;88.40;;;;;;10518776;28;20947;-65
2023/10/17 17:23:03;;;;;;;2.83;1.40;;;14.70;88.00;;;;;;10530324;28;20470;-66
2023/10/17 17:28:03;;;;;;;2.90;1.25;;;14.70;88.00;;;;;;10532425;28;21095;-65
2023/10/17 17:33:04;;;;;;;3.28;1.38;;;14.60;88.00;;;;;;10523250;28;20417;-65
2023/10/17 17:38:06;;;;;;;2.90;1.30;;;14.70;88.10;;;;;;10538319;28;20413;-65
2023/10/17 17:43:06;;;;;;;2.17;1.13;;;15.00;88.50;;;;;;10534137;28;20471;-65
2023/10/17 17:48:09;;;;;;;2.07;1.50;;;14.60;88.40;;;;;;10527965;28;20410;-65
2023/10/17 17:53:09;;;;;;;1.70;1.20;;;14.90;88.40;;;;;;10498971;28;20480;-64
2023/10/17 17:58:10;;;;;;;2.87;1.40;;;14.50;88.30;;;;;;10525426;28;20928;-65
2023/10/17 18:03:11;;;;;;;2.30;1.35;;;14.50;88.30;;;;;;10528323;28;20406;-65
2023/10/17 18:08:12;;;;;;;5.10;1.57;;;14.50;88.20;;;;;;10534417;28;20408;-65
2023/10/17 18:13:12;;;;;;;1.88;1.25;;;14.50;88.10;;;;;;10534553;28;20401;-66
2023/10/17 18:18:14;;;;;;;2.20;1.20;;;14.40;88.10;;;;;;10519344;28;20522;-64
2023/10/17 18:23:21;;;;;;;2.42;1.15;;;14.40;88.50;;;;;;10512142;28;20515;-65
2023/10/17 18:28:22;;;;;;;2.70;1.20;;;14.40;88.50;;;;;;10525211;28;20414;-66
2023/10/17 18:33:23;;;;;;;2.63;1.30;;;14.40;88.30;;;;;;10526704;28;20801;-65
2023/10/17 18:38:24;;;;;;;2.30;1.15;;;14.30;88.70;;;;;;10529658;28;20428;-65
2023/10/17 18:43:29;;;;;;;2.45;1.30;;;14.30;88.90;;;;;;10506825;28;20851;-64
2023/10/17 18:48:33;;;;;;;2.33;1.30;;;14.30;88.50;;;;;;10519955;28;20504;-65
2023/10/17 18:53:35;;;;;;;3.17;1.63;;;14.80;88.80;;;;;;10505809;28;20437;-64
2023/10/17 18:58:38;;;;;;;2.60;1.67;;;14.20;87.80;;;;;;10515103;28;20909;-63
2023/10/17 19:03:43;;;;;;;2.95;1.67;;;14.40;88.30;;;;;;10521286;28;20708;-64
2023/10/17 19:08:44;;;;;;;3.87;1.60;;;14.10;88.50;;;;;;10519064;28;20886;-63
2023/10/17 19:13:51;;;;;;;2.43;1.20;;;14.20;88.90;;;;;;10502696;28;20404;-64
2023/10/17 19:18:52;;;;;;;2.88;1.58;;;14.10;89.00;;;;;;10525640;28;20406;-64
2023/10/17 19:23:53;;;;;;;2.97;1.40;;;14.10;89.00;;;;;;10517732;28;20439;-62
2023/10/17 19:28:54;;;;;;;3.08;1.40;;;14.00;88.90;;;;;;10503289;28;20550;-65
2023/10/17 19:33:56;;;;;;;2.30;1.30;;;14.00;88.90;;;;;;10505984;28;20552;-64
2023/10/17 19:38:59;;;;;;;2.50;1.27;;;14.00;88.90;;;;;;10523939;28;20422;-65
2023/10/17 19:43:59;;;;;;;2.83;1.52;;;14.00;88.80;;;;;;10516040;28;20842;-64
2023/10/17 19:49:00;;;;;;;1.97;1.47;;;14.00;88.80;;;;;;10517002;28;20522;-63
2023/10/17 19:54:01;;;;;;;2.13;1.50;;;14.00;88.50;;;;;;10524000;28;20674;-64
2023/10/17 19:59:01;;;;;;;2.50;1.50;;;13.90;88.40;;;;;;10522667;28;20398;-63
2023/10/17 20:04:02;;;;;;;2.70;1.43;;;12.80;87.80;;;;;;10524889;28;20501;-63
2023/10/17 20:09:07;;;;;;;2.58;1.50;;;13.90;88.40;;;;;;10509285;28;20504;-64
2023/10/17 20:14:07;;;;;;;2.17;1.35;;;13.90;88.40;;;;;;10508854;28;20428;-64
2023/10/17 20:19:08;;;;;;;4.17;1.80;;;13.80;88.20;;;;;;10520842;28;20412;-65
2023/10/17 20:24:10;;;;;;;3.03;1.40;;;13.80;88.90;;;;;;10520226;28;20836;-65
2023/10/17 20:29:12;;;;;;;3.40;1.50;;;13.80;88.30;;;;;;10511383;28;20408;-64
2023/10/17 20:34:13;;;;;;;2.75;1.58;;;13.80;88.30;;;;;;10517717;28;20406;-64
2023/10/17 20:39:20;;;;;;;1.73;1.37;;;13.80;88.20;;;;;;10517249;28;20735;-64
2023/10/17 20:44:21;;;;;;;2.17;1.50;;;13.70;88.10;;;;;;10527269;28;21100;-64
2023/10/17 20:49:22;;;;;;;3.05;1.58;;;13.70;88.20;;;;;;10520348;28;20461;-64
2023/10/17 20:54:24;;;;;;;3.20;2.00;;;13.70;88.20;;;;;;10516083;28;20939;-65
2023/10/17 20:59:26;;;;;;;2.35;1.60;;;13.70;88.30;;;;;;10518148;28;20474;-64
2023/10/17 21:04:26;;;;;;;3.72;1.55;;;13.70;88.40;;;;;;10523175;28;20427;-64
2023/10/17 21:09:27;;;;;;;2.70;1.47;;;13.70;88.40;;;;;;10514641;28;20461;-63
2023/10/17 21:14:28;;;;;;;2.58;1.50;;;13.60;88.30;;;;;;10510284;28;20410;-65
2023/10/17 21:19:29;;;;;;;2.88;1.50;;;13.60;88.30;;;;;;10504425;28;20479;-64
2023/10/17 21:24:29;;;;;;;2.87;1.50;;;13.60;88.40;;;;;;10499620;28;20413;-64
2023/10/17 21:29:31;;;;;;;2.40;1.60;;;13.60;88.40;;;;;;10520150;28;20419;-64
2023/10/17 21:34:32;;;;;;;3.57;1.53;;;13.60;88.40;;;;;;10523298;28;20928;-64
2023/10/17 21:39:33;;;;;;;2.55;1.70;;;13.50;88.40;;;;;;10511434;28;20428;-64
2023/10/17 21:44:34;;;;;;;3.80;1.80;;;13.50;88.50;;;;;;10523311;28;20555;-64
2023/10/17 21:49:35;;;;;;;2.40;1.75;;;13.50;88.50;;;;;;10527063;28;20425;-64
2023/10/17 21:54:36;;;;;;;4.43;2.00;;;13.50;88.50;;;;;;10519140;28;20394;-63
2023/10/17 21:59:37;;;;;;;3.63;2.10;;;13.50;88.50;;;;;;10521544;28;20413;-64
2023/10/17 22:04:39;;;;;;;4.13;2.13;;;13.50;88.50;;;;;;10504983;28;20421;-64
2023/10/17 22:09:40;;;;;;;4.00;2.10;;;13.40;88.50;;;;;;10520191;28;20467;-63
2023/10/17 22:14:41;;;;;;;3.15;2.00;;;13.40;88.50;;;;;;10523594;28;20411;-64
2023/10/17 22:19:41;;;;;;;3.80;2.30;;;13.60;88.70;;;;;;10528512;28;20893;-65
2023/10/17 22:24:42;;;;;;;5.13;2.28;;;13.40;88.60;;;;;;10522869;28;20803;-64
2023/10/17 22:29:43;;;;;;;2.70;2.00;;;13.40;88.60;;;;;;10524061;28;20411;-65
2023/10/17 22:34:43;;;;;;;4.80;2.40;;;13.30;88.60;;;;;;10524692;28;20393;-65
2023/10/17 22:39:44;;;;;;;5.35;2.30;;;13.30;88.50;;;;;;10519746;28;20411;-64
2023/10/17 22:44:45;;;;;;;3.60;2.27;;;13.30;88.50;;;;;;10529122;28;20422;-65
2023/10/17 22:49:45;;;;;;;4.60;2.60;;;13.30;88.50;;;;;;10525952;28;20976;-63
2023/10/17 22:54:46;;;;;;;3.25;2.40;;;13.30;88.50;;;;;;10510874;28;20401;-64
2023/10/17 22:59:46;;;;;;;3.03;2.30;;;13.30;88.50;;;;;;10522342;28;20389;-65
2023/10/17 23:04:47;;;;;;;4.63;2.58;;;13.20;88.50;;;;;;10523618;28;20405;-64
2023/10/17 23:09:48;;;;;;;4.00;2.40;;;13.30;88.50;;;;;;10531642;28;20419;-64
2023/10/17 23:14:48;;;;;;;4.13;2.70;;;13.20;88.50;;;;;;10539463;28;20393;-65
2023/10/17 23:19:49;;;;;;;5.37;3.07;;;13.20;88.50;;;;;;10535814;28;20867;-64
2023/10/17 23:24:50;;;;;;;5.30;2.90;;;13.20;88.50;;;;;;10531264;28;20509;-64
2023/10/17 23:29:53;;;;;;;5.20;2.87;;;13.70;88.80;;;;;;10534819;28;20797;-64
2023/10/17 23:34:54;;;;;;;5.00;2.73;;;13.10;88.50;;;;;;10528863;28;20407;-64
2023/10/17 23:39:56;;;;;;;4.43;3.20;;;13.10;88.50;;;;;;10526164;28;20413;-65
2023/10/17 23:44:58;;;;;;;5.60;3.45;;;13.10;88.50;;;;;;10533852;28;20978;-64
2023/10/17 23:49:59;;;;;;;5.40;2.97;;;13.10;88.50;;;;;;10522711;28;20442;-63
2023/10/17 23:55:00;;;;;;;5.77;3.67;;;13.00;88.60;;;;;;10514641;28;20415;-65
